CheckWX is a tool to help pilots better visualize weather data.  It is not intended as a substitute for an official pre-flight weather briefing.

18:31:39 UTC

KCFD METAR
Coulter Field Airport
Bryan, Texas, USA
Current

17 mins ago

KCFD 221815Z AUTO 34006KT 2 1/2SM -RA OVC003 10/10 A2998 RMK AO2 P0001 T01020102
Observed
Feb-22 @ 18:15 UTC
Wind
  • 340° at 6 KTS
Visibility
2 1/2 SM
Flight Rules
LIFR
Conditions
Light Rain
Cloud Levels
  • Overcast at 300' AGL
Temperature
10°C / 50°F
Dewpoint
10°C / 50°F
Humidity
100%
Altimeter
29.98" Hg
Pressure
1015.22 hPa
Current Rain
0.01"
Previous

37 mins ago

KCFD 221755Z AUTO 32005KT 1 1/4SM RA OVC003 10/10 A2999 RMK AO2 P0004 60007 T01010101 10103 20083
Observed
Feb-22 @ 17:55 UTC
Wind
  • 320° at 5 KTS
Visibility
1 1/4 SM
Flight Rules
LIFR
Conditions
Rain
Cloud Levels
  • Overcast at 300' AGL
Temperature
10°C / 50°F
Dewpoint
10°C / 50°F
Humidity
100%
Altimeter
29.99" Hg
Pressure
1015.62 hPa
Current Rain
0.04"
Previous

57 mins ago

KCFD 221735Z AUTO 32004KT 2SM BR OVC003 10/10 A3000 RMK AO2 P0003 T01030103
Observed
Feb-22 @ 17:35 UTC
Wind
  • 320° at 4 KTS
Visibility
2 SM
Flight Rules
LIFR
Conditions
Mist
Cloud Levels
  • Overcast at 300' AGL
Temperature
10°C / 50°F
Dewpoint
10°C / 50°F
Humidity
100%
Altimeter
30" Hg
Pressure
1015.92 hPa
Current Rain
0.03"